createdAt,value
2019-05-15T18:07:43.909Z,12.12
2019-05-15T18:10:14.815Z,12.15
2019-05-15T18:12:44.182Z,11.98
2019-05-15T18:15:15.223Z,11.90
2019-05-15T18:17:47.946Z,11.95
2019-05-15T18:20:29.658Z,12.02
2019-05-15T18:22:59.182Z,11.85
2019-05-15T18:25:33.549Z,11.79
2019-05-15T18:28:02.946Z,11.73
2019-05-15T18:30:35.395Z,11.66
2019-05-15T18:33:08.554Z,11.70
2019-05-15T18:35:38.587Z,11.69
2019-05-15T18:38:11.210Z,11.50
2019-05-15T18:40:40.508Z,11.29
2019-05-15T18:43:10.975Z,11.33
2019-05-15T18:45:40.493Z,11.39
2019-05-15T18:48:10.993Z,11.32
2019-05-15T18:50:40.427Z,11.20
2019-05-15T18:53:10.821Z,11.37
2019-05-15T18:55:40.184Z,11.31
2019-05-15T18:58:12.680Z,11.17
2019-05-15T19:00:43.104Z,11.22
2019-05-15T19:03:19.521Z,11.26
2019-05-15T19:05:44.624Z,11.25
2019-05-15T19:08:14.210Z,11.32
2019-05-15T19:10:44.599Z,11.18
2019-05-15T19:13:15.016Z,11.08
2019-05-15T19:15:45.625Z,11.06
2019-05-15T19:18:16.030Z,11.10
2019-05-15T19:20:45.429Z,11.10
2019-05-15T19:23:18.924Z,11.07
2019-05-15T19:25:49.338Z,11.02
2019-05-15T19:28:21.315Z,11.05
2019-05-15T19:30:51.709Z,11.02
2019-05-15T19:33:33.460Z,10.95
2019-05-15T19:35:57.013Z,10.99
2019-05-15T19:38:28.668Z,10.84
2019-05-15T19:41:03.055Z,10.90
2019-05-15T19:43:32.034Z,10.99
2019-05-15T19:46:01.394Z,11.02
2019-05-15T19:48:31.975Z,10.84
2019-05-15T19:51:01.482Z,10.83
2019-05-15T19:53:31.940Z,10.91
2019-05-15T19:56:02.448Z,10.99
2019-05-15T19:58:32.416Z,11.02
2019-05-15T20:01:03.514Z,11.05
2019-05-15T20:03:47.360Z,10.98
2019-05-15T20:06:09.387Z,10.93
2019-05-15T20:08:39.803Z,10.92
2019-05-15T20:11:10.499Z,10.95
2019-05-15T20:13:42.539Z,10.90
2019-05-15T20:16:12.909Z,10.88
2019-05-15T20:18:42.206Z,10.89
2019-05-15T20:21:14.359Z,10.88
2019-05-15T20:23:45.062Z,10.90
2019-05-15T20:26:18.908Z,10.86
2019-05-15T20:28:49.420Z,10.94
2019-05-15T20:31:19.929Z,10.88
2019-05-15T20:34:02.168Z,10.69
2019-05-15T20:36:21.694Z,10.58
2019-05-15T20:38:52.307Z,10.61
2019-05-15T20:41:22.912Z,10.54
2019-05-15T20:43:58.133Z,10.57
2019-05-15T20:46:29.297Z,10.54
2019-05-15T20:48:59.832Z,10.51
2019-05-15T20:51:29.277Z,10.54
2019-05-15T20:53:58.645Z,10.57
2019-05-15T20:56:29.131Z,10.51
2019-05-15T20:58:58.620Z,10.47
2019-05-15T21:01:29.667Z,10.48
2019-05-15T21:03:59.638Z,10.48
2019-05-15T21:06:29.168Z,10.46
2019-05-15T21:08:59.770Z,10.47
2019-05-15T21:11:29.801Z,10.46
2019-05-15T21:13:59.160Z,10.52
2019-05-15T21:16:28.645Z,10.55
2019-05-15T21:19:00.308Z,10.53
2019-05-15T21:21:30.857Z,10.56
2019-05-15T21:24:01.265Z,10.56
2019-05-15T21:26:31.775Z,10.49
2019-05-15T21:29:04.164Z,10.45
2019-05-15T21:31:34.467Z,10.59
2019-05-15T21:34:03.502Z,10.63
2019-05-15T21:36:32.884Z,10.55
2019-05-15T21:39:03.278Z,10.52
2019-05-15T21:41:38.781Z,10.44
2019-05-15T21:44:08.909Z,10.44
2019-05-15T21:46:41.185Z,10.42
2019-05-15T21:49:10.605Z,10.38
2019-05-15T21:51:42.771Z,10.32
2019-05-15T21:54:13.128Z,10.27
2019-05-15T21:56:43.650Z,10.33
2019-05-15T21:59:13.219Z,10.29
2019-05-15T22:01:43.736Z,10.40
2019-05-15T22:04:14.436Z,10.41
2019-05-15T22:06:44.958Z,10.34
2019-05-15T22:09:19.217Z,10.34
2019-05-15T22:11:49.807Z,10.36
2019-05-15T22:14:20.550Z,10.23
2019-05-15T22:16:49.827Z,10.18
2019-05-15T22:19:20.756Z,10.15
2019-05-15T22:21:51.881Z,10.20
2019-05-15T22:24:22.280Z,10.30
2019-05-15T22:26:53.116Z,10.16
2019-05-15T22:29:22.610Z,10.15
2019-05-15T22:31:53.303Z,10.12
2019-05-15T22:34:23.707Z,10.11
2019-05-15T22:36:53.110Z,10.03
2019-05-15T22:39:23.875Z,10.06
2019-05-15T22:41:54.285Z,9.93
2019-05-15T22:44:28.013Z,9.95
2019-05-15T22:46:58.139Z,9.93
2019-05-15T22:49:28.917Z,10.02
2019-05-15T22:51:59.663Z,9.92
2019-05-15T22:54:30.255Z,9.98
2019-05-15T22:56:59.963Z,10.07
2019-05-15T22:59:29.362Z,9.84
2019-05-15T23:01:58.674Z,9.83
2019-05-15T23:04:29.077Z,9.74
2019-05-15T23:06:59.820Z,9.81
2019-05-15T23:09:31.247Z,9.76
2019-05-15T23:12:02.204Z,9.80
2019-05-15T23:14:31.536Z,9.78
2019-05-15T23:17:00.939Z,9.66
2019-05-15T23:19:31.305Z,9.67
2019-05-15T23:22:03.588Z,9.58
2019-05-15T23:24:35.053Z,9.59
2019-05-15T23:27:04.443Z,9.60
2019-05-15T23:29:33.881Z,9.56
2019-05-15T23:32:04.270Z,9.53
2019-05-15T23:34:33.854Z,9.54
2019-05-15T23:37:04.356Z,9.62
2019-05-15T23:39:34.764Z,9.61
2019-05-15T23:42:04.077Z,9.65
2019-05-15T23:44:34.739Z,9.66
2019-05-15T23:47:06.703Z,9.62
2019-05-15T23:49:38.194Z,9.60
2019-05-15T23:52:09.009Z,9.60
2019-05-15T23:54:38.675Z,9.61
2019-05-15T23:57:09.141Z,9.66
2019-05-15T23:59:39.507Z,9.57
